North Natick, Massachusetts
Current Conditions -  °F | °C
As of 10:53 PM on Sunday 25 Jan 2015 (Local Time) from KOWD Reporting Station
Clear Clear  
Wind Chill: 14°   Ceiling: Unl
Heat Index: 22°   Visibility: 10mi
Dew Point:   Wind: 6mph
Humidity: 48%   Direction: 340°NNW
Pressure: 30"   Gusts: NA
Location:  42.2868°N, 71.3531°W
Report Text: KOWD 260353Z AUTO 34005KT 10SM CLR M06/M15 A3000 RMK AO2 SLP159 T10561150
Loading
Personal Weather Stations






























Interactive Weather Map New forecast layout! Learn more

10-Day Weather Forecast

Advertisements
Track Severe Weather on mobile